Southwest Georgia Regional Airport
KABY : now visible

Airfield :











YOU CAN JOIN US ON...

 
LOGIN :

Register | Disclaimer

   EN    FR    IT 

 









Legend :    VFR   Marginal VFR   IFR   Intensive IFR   Very Intensive IFR
Visi :
Ceiling :
>= 8 km
>= 3000ft
5 to 8 km
1000 to 3000 ft
1500m to 5 km
500 to 1000 ft
800 to 1500m
200 to 500 ft
< 800m
< 200 ft
Symbols :   Thunderstorms  Fog  Heavy snow  Heavy precipitations  Wind > 20 kt






- Airport Elevation : 197 ft
- IATA code : ABY


KABY - Southwest Georgia Regional

CURRENT METAR :
  • 291253Z 00000KT 9SM OVC120 07/04 A3006 RMK AO2 SLP179 T00720039

EXPIRED METARs :
  • 291153Z AUTO 00000KT 9SM CLR 06/04 A3003 RMK AO2 SLP170 T00610039 10061 20033 55000
  • 291053Z AUTO 00000KT 9SM CLR 05/04 A3003 RMK AO2 SLP168 T00500039

TAF KABY
Valid from the 29 at 12:00 until the 30 at 12:00 UTC


291128Z 2912/3012 VRB03KT P6SM SCT100
FM291400 VRB03KT P6SM BKN120
FM291900 VRB04KT 6SM RA OVC060
FM300000 05007KT 6SM SHRA OVC030
FM300500 04006KT 6SM SHRA SCT024



MET'MAP, your aeronautical weather chart ! - Copyright ORBIFLY December 2007 - Disclaimer

ORBIFLY MET'MAP TEAM :

Programming & Development : Alexandra Zaïnal
Concept & original design : Baudouin d'Aumeries
Assistance for programming : Marc-Olivier Méhu
Technical & hardware support : Manuel Goepfert

Contact : metmap@orbifly.com




SOURCES & CREDITS :

   NOAA       Earth
Advisory